Wanatah, Indiana
Current Conditions -  °F | °C
As of 3:56 AM on Monday 20 Oct 2014 (Local Time) from KVPZ Reporting Station
Overcast Overcast  
Wind Chill: 44°   Ceiling: 6000
Heat Index: 48°   Visibility: 10mi
Dew Point: 43°   Wind: 9mph
Humidity: 83%   Direction: 200°SSW
Pressure: 29.87"   Gusts: NA
Location:  41.43°N, 86.9°W
Report Text: KVPZ 200856Z AUTO 20008KT 10SM OVC060 09/06 A2987 RMK AO2 SLP118 T00890061 56023 TSNO
Loading
Personal Weather Stations






























Interactive Weather Map New forecast layout! Learn more

10-Day Weather Forecast

Advertisements
Track Severe Weather on mobile